Time;durP1;ratioP1;P1;durP2;ratioP2;P2;SDS_P1;SDS_P2;PMS_P1;PMS_P2;Temp;Humidity;BMP_temperature;BMP_pressure;BME280_temperature;BME280_humidity;BME280_pressure;Samples;Min_cycle;Max_cycle;Signal;HPM_P1;HPM_P2
2021/06/02 00:00:12;;;;;;;9.18;6.30;;;22.10;55.70;;;;;;5059503;28;20116;-79
2021/06/02 00:02:59;;;;;;;12.35;6.55;;;21.90;55.90;;;;;;5052375;28;20029;-78
2021/06/02 00:05:27;;;;;;;11.13;6.60;;;22.00;56.10;;;;;;5075875;28;20043;-79
2021/06/02 00:07:52;;;;;;;10.18;7.03;;;22.00;55.90;;;;;;5075848;28;20031;-79
2021/06/02 00:10:20;;;;;;;13.43;7.45;;;22.10;55.70;;;;;;5076562;28;20377;-79
2021/06/02 00:12:47;;;;;;;12.63;6.28;;;22.10;55.70;;;;;;5062848;28;20036;-79
2021/06/02 00:15:13;;;;;;;10.88;6.72;;;22.10;55.70;;;;;;5056352;28;20354;-79
2021/06/02 00:17:39;;;;;;;14.38;6.63;;;22.20;55.40;;;;;;5037961;28;20365;-78
2021/06/02 00:20:09;;;;;;;17.70;7.15;;;22.30;55.00;;;;;;5055800;28;20132;-78
2021/06/02 00:22:36;;;;;;;14.43;6.78;;;22.10;54.60;;;;;;5064344;28;20048;-77
2021/06/02 00:25:03;;;;;;;14.10;7.03;;;22.10;54.80;;;;;;5057879;28;20389;-79
2021/06/02 00:27:31;;;;;;;18.02;6.93;;;22.10;54.50;;;;;;5057570;28;20024;-78
2021/06/02 00:30:01;;;;;;;12.30;7.70;;;22.10;54.40;;;;;;5076871;28;20536;-78
2021/06/02 00:32:28;;;;;;;15.93;6.95;;;22.10;54.30;;;;;;5052346;28;20367;-79
2021/06/02 00:34:54;;;;;;;15.32;7.30;;;22.20;54.40;;;;;;5055209;28;20021;-79
2021/06/02 00:37:21;;;;;;;11.43;7.32;;;22.10;54.20;;;;;;5055102;28;20045;-79
2021/06/02 00:39:47;;;;;;;16.05;7.25;;;22.10;54.20;;;;;;5057274;28;20043;-78
2021/06/02 00:42:13;;;;;;;15.60;7.35;;;22.10;54.20;;;;;;5056417;28;20024;-78
2021/06/02 00:44:40;;;;;;;13.23;7.35;;;22.00;54.20;;;;;;5037438;28;20033;-78
2021/06/02 00:47:06;;;;;;;12.60;6.50;;;22.00;54.30;;;;;;5037254;28;20162;-79
2021/06/02 00:49:32;;;;;;;16.33;7.40;;;22.10;54.10;;;;;;5037081;28;20029;-77
2021/06/02 00:51:59;;;;;;;15.63;7.20;;;22.10;54.00;;;;;;5054707;28;20511;-76
2021/06/02 00:54:27;;;;;;;14.52;6.68;;;22.10;54.00;;;;;;5070331;28;20028;-77
2021/06/02 00:56:55;;;;;;;12.15;6.85;;;21.90;54.10;;;;;;5074761;28;20028;-78
2021/06/02 00:59:40;;;;;;;12.27;7.07;;;21.80;54.20;;;;;;5040437;28;20553;-78
2021/06/02 01:02:14;;;;;;;12.73;6.75;;;21.80;54.40;;;;;;5075041;28;20512;-78
2021/06/02 01:04:42;;;;;;;16.17;6.30;;;21.70;54.40;;;;;;5041980;28;20110;-77
2021/06/02 01:07:11;;;;;;;11.93;5.82;;;21.60;54.50;;;;;;5054742;28;20171;-77
2021/06/02 01:09:48;;;;;;;13.43;5.90;;;21.50;54.80;;;;;;5051808;28;20112;-78
2021/06/02 01:12:21;;;;;;;9.07;5.60;;;21.50;54.60;;;;;;5057955;28;20024;-77
2021/06/02 01:14:48;;;;;;;9.60;5.30;;;21.40;54.40;;;;;;5045992;28;20028;-76
2021/06/02 01:17:16;;;;;;;11.98;5.88;;;21.30;54.50;;;;;;5054172;28;20025;-77
2021/06/02 01:19:43;;;;;;;15.23;5.72;;;21.40;54.70;;;;;;5054099;28;20136;-78
2021/06/02 01:22:09;;;;;;;9.82;4.85;;;21.40;54.60;;;;;;5054337;28;20025;-78
2021/06/02 01:24:35;;;;;;;9.52;4.70;;;21.30;54.60;;;;;;5062405;28;20033;-77
2021/06/02 01:27:04;;;;;;;9.50;4.63;;;21.30;54.50;;;;;;5074229;28;20027;-78
2021/06/02 01:29:31;;;;;;;8.20;4.50;;;21.30;54.80;;;;;;5074118;28;20028;-77
2021/06/02 01:32:17;;;;;;;12.55;4.97;;;21.30;54.70;;;;;;5074098;28;20435;-78
2021/06/02 01:35:20;;;;;;;10.35;4.95;;;21.30;54.40;;;;;;5049063;28;20025;-76
2021/06/02 01:38:23;;;;;;;11.43;5.13;;;21.10;54.00;;;;;;5054370;28;20025;-78
2021/06/02 01:41:12;;;;;;;9.07;4.57;;;21.00;54.40;;;;;;5053946;28;20443;-77
2021/06/02 01:43:50;;;;;;;10.27;5.22;;;21.00;54.30;;;;;;5054010;28;20196;-77
2021/06/02 01:46:28;;;;;;;7.43;5.35;;;21.10;54.70;;;;;;5070477;28;20062;-77
2021/06/02 01:49:02;;;;;;;10.93;4.72;;;21.20;54.00;;;;;;5073399;28;20111;-77
2021/06/02 01:52:05;;;;;;;8.82;4.90;;;21.10;54.40;;;;;;5073805;28;20025;-78
2021/06/02 01:54:49;;;;;;;9.93;4.95;;;20.80;53.80;;;;;;5055709;28;20021;-78
2021/06/02 01:57:38;;;;;;;;;;;20.60;54.40;;;;;;5055211;28;20021;-78
2021/06/02 02:00:39;;;;;;;12.23;5.22;;;20.70;54.60;;;;;;5053848;28;19905;-78
2021/06/02 02:04:09;;;;;;;8.82;4.63;;;20.70;54.40;;;;;;5061091;28;20020;-78
2021/06/02 02:06:53;;;;;;;14.02;4.47;;;20.60;54.70;;;;;;5029419;28;20026;-78
2021/06/02 02:09:38;;;;;;;9.35;4.07;;;20.50;54.80;;;;;;4999008;28;20037;-78
2021/06/02 02:12:31;;;;;;;8.88;4.80;;;20.50;54.40;;;;;;5037837;28;20060;-78
2021/06/02 02:14:57;;;;;;;9.57;5.00;;;20.50;54.80;;;;;;5054531;28;20033;-78
2021/06/02 02:17:44;;;;;;;7.35;4.10;;;20.40;54.60;;;;;;5072163;28;20030;-77
2021/06/02 02:20:41;;;;;;;7.22;4.30;;;20.50;54.40;;;;;;5074748;28;20056;-77
2021/06/02 02:23:24;;;;;;;7.80;4.10;;;20.50;54.10;;;;;;5075605;28;20017;-78
2021/06/02 02:25:56;;;;;;;7.05;4.35;;;20.40;54.10;;;;;;5056615;28;20041;-78
2021/06/02 02:28:59;;;;;;;7.57;4.00;;;20.50;54.30;;;;;;5055702;28;20028;-78
2021/06/02 02:31:43;;;;;;;7.65;4.13;;;20.40;54.10;;;;;;5066015;28;20052;-78
2021/06/02 02:34:35;;;;;;;8.98;4.03;;;20.30;54.40;;;;;;5068280;28;20047;-78
2021/06/02 02:37:06;;;;;;;7.43;4.32;;;20.30;54.20;;;;;;5093374;28;20017;-78
2021/06/02 02:40:07;;;;;;;8.15;3.95;;;20.30;54.60;;;;;;5064262;28;20028;-78
2021/06/02 02:43:14;;;;;;;7.80;4.22;;;20.20;54.30;;;;;;5050498;28;20056;-79
2021/06/02 02:45:59;;;;;;;6.25;3.42;;;20.20;54.30;;;;;;4972889;28;20038;-78
2021/06/02 02:48:27;;;;;;;7.78;4.20;;;20.20;54.60;;;;;;5069014;28;20036;-78
2021/06/02 02:51:25;;;;;;;6.30;3.88;;;20.30;54.40;;;;;;5073381;28;20025;-77
2021/06/02 02:53:56;;;;;;;5.55;3.85;;;20.20;54.30;;;;;;5055242;28;20385;-78
2021/06/02 02:56:48;;;;;;;6.13;3.72;;;20.10;54.50;;;;;;5055442;28;20120;-77
2021/06/02 02:59:22;;;;;;;6.82;3.80;;;20.00;54.70;;;;;;5053621;28;20431;-76
2021/06/02 03:01:58;;;;;;;7.07;4.32;;;20.00;54.80;;;;;;5055932;28;20558;-79
2021/06/02 03:04:26;;;;;;;5.82;4.07;;;19.90;55.50;;;;;;5073198;28;20040;-79
2021/06/02 03:06:59;;;;;;;8.02;4.25;;;20.10;55.50;;;;;;5073227;28;20357;-78
2021/06/02 03:09:50;;;;;;;7.43;3.25;;;20.10;55.30;;;;;;5035254;28;20033;-78
2021/06/02 03:12:42;;;;;;;9.57;4.32;;;20.10;55.10;;;;;;5053076;28;20044;-79
2021/06/02 03:15:29;;;;;;;11.75;4.40;;;19.90;55.70;;;;;;5053440;28;20477;-79
2021/06/02 03:18:06;;;;;;;7.70;4.10;;;19.80;55.60;;;;;;5057799;28;20033;-78
2021/06/02 03:21:02;;;;;;;6.85;4.10;;;19.80;55.90;;;;;;5057066;28;20076;-78
2021/06/02 03:23:34;;;;;;;10.27;5.07;;;19.80;55.70;;;;;;5058949;28;20016;-78
2021/06/02 03:26:18;;;;;;;7.05;4.30;;;19.60;55.70;;;;;;5076771;28;20514;-78
2021/06/02 03:29:12;;;;;;;8.32;4.15;;;19.70;56.10;;;;;;5067543;28;20500;-79
2021/06/02 03:31:47;;;;;;;7.25;4.45;;;19.70;55.60;;;;;;5057066;28;20019;-79
2021/06/02 03:34:23;;;;;;;12.68;4.82;;;19.80;55.90;;;;;;5057036;28;20025;-79
2021/06/02 03:37:16;;;;;;;9.75;4.43;;;19.70;56.10;;;;;;5039369;28;20039;-79
2021/06/02 03:39:57;;;;;;;7.75;4.60;;;19.70;55.70;;;;;;5071156;28;20025;-80
2021/06/02 03:42:46;;;;;;;8.70;4.53;;;19.80;55.80;;;;;;5076972;28;20109;-79
2021/06/02 03:45:29;;;;;;;7.53;4.18;;;19.80;55.70;;;;;;5058743;28;20041;-78
2021/06/02 03:48:16;;;;;;;9.32;4.35;;;20.00;55.60;;;;;;5081538;28;20032;-78
2021/06/02 03:51:00;;;;;;;7.97;3.80;;;19.90;55.40;;;;;;5082641;28;20084;-79
2021/06/02 03:53:51;;;;;;;8.77;4.80;;;19.90;55.70;;;;;;5079029;28;20031;-78
2021/06/02 03:56:29;;;;;;;7.63;4.15;;;20.00;55.30;;;;;;5072854;28;20021;-79
2021/06/02 03:59:28;;;;;;;6.85;4.63;;;20.20;55.20;;;;;;5057858;28;20017;-78
2021/06/02 04:02:18;;;;;;;7.03;4.00;;;20.10;55.00;;;;;;5076218;28;20024;-78
2021/06/02 04:05:09;;;;;;;7.22;4.18;;;20.00;55.20;;;;;;5057906;28;20064;-78
2021/06/02 04:07:54;;;;;;;7.97;4.18;;;20.00;55.40;;;;;;5075952;28;20074;-79
2021/06/02 04:10:53;;;;;;;8.98;3.85;;;20.00;55.10;;;;;;5065082;28;20033;-78
2021/06/02 04:13:57;;;;;;;9.23;4.25;;;20.10;55.00;;;;;;5056103;28;20043;-78
2021/06/02 04:16:43;;;;;;;9.13;4.25;;;20.10;55.00;;;;;;5055476;28;20120;-77
2021/06/02 04:19:14;;;;;;;12.18;4.05;;;20.20;55.10;;;;;;5072710;28;20502;-78
2021/06/02 04:21:44;;;;;;;9.02;4.57;;;20.20;55.30;;;;;;5038320;28;20085;-78
2021/06/02 04:24:14;;;;;;;8.68;3.60;;;20.20;55.30;;;;;;5055440;28;20037;-77
2021/06/02 04:26:41;;;;;;;6.80;4.18;;;20.30;55.10;;;;;;5075027;28;20472;-78
2021/06/02 04:29:11;;;;;;;7.25;4.10;;;20.30;55.10;;;;;;5057157;28;20021;-78
2021/06/02 04:31:44;;;;;;;9.25;4.18;;;20.40;54.60;;;;;;5036237;28;20067;-78
2021/06/02 04:34:10;;;;;;;11.73;4.33;;;20.40;54.80;;;;;;5055178;28;20102;-80
2021/06/02 04:36:36;;;;;;;7.00;4.20;;;20.40;54.60;;;;;;5053674;28;20366;-79
2021/06/02 04:39:01;;;;;;;10.18;4.25;;;20.30;54.80;;;;;;5036929;28;20183;-78
2021/06/02 04:41:29;;;;;;;8.20;4.22;;;20.30;54.90;;;;;;5037000;28;20032;-78
2021/06/02 04:43:57;;;;;;;9.27;4.55;;;20.30;54.90;;;;;;5054629;28;20029;-80
2021/06/02 04:46:23;;;;;;;10.20;4.68;;;20.20;54.80;;;;;;5055372;28;20021;-79
2021/06/02 04:48:52;;;;;;;7.30;4.30;;;20.20;54.80;;;;;;5055732;28;20035;-80
2021/06/02 04:51:42;;;;;;;8.88;4.60;;;20.30;54.80;;;;;;5044154;28;20025;-79
2021/06/02 04:54:34;;;;;;;9.20;4.07;;;20.30;54.70;;;;;;5096606;28;20048;-78
2021/06/02 04:57:30;;;;;;;6.78;4.40;;;20.20;54.40;;;;;;5085934;28;20024;-79
2021/06/02 05:00:17;;;;;;;9.57;4.55;;;20.10;54.50;;;;;;5078141;28;20099;-80
2021/06/02 05:03:16;;;;;;;8.70;4.30;;;20.00;54.80;;;;;;5058219;28;20029;-78
2021/06/02 05:06:03;;;;;;;7.25;4.43;;;20.20;54.60;;;;;;5054566;28;20037;-80
2021/06/02 05:09:08;;;;;;;8.15;4.03;;;20.10;54.70;;;;;;5054610;28;20087;-78
2021/06/02 05:11:55;;;;;;;9.13;4.15;;;20.20;54.00;;;;;;5058255;28;20031;-79
2021/06/02 05:14:35;;;;;;;7.18;4.22;;;20.30;54.20;;;;;;5074605;28;20047;-79
2021/06/02 05:17:22;;;;;;;7.68;3.88;;;20.50;53.90;;;;;;5074233;28;20033;-78
2021/06/02 05:20:37;;;;;;;8.63;4.45;;;20.70;53.60;;;;;;5065150;28;20130;-78
2021/06/02 05:23:27;;;;;;;9.18;4.22;;;21.00;53.40;;;;;;5049330;28;20051;-79
2021/06/02 05:26:23;;;;;;;8.15;4.68;;;21.60;52.80;;;;;;5074492;28;20098;-78
2021/06/02 05:29:07;;;;;;;9.05;3.95;;;22.00;51.90;;;;;;5054248;28;20041;-78
2021/06/02 05:32:01;;;;;;;7.47;3.40;;;22.40;51.20;;;;;;5053756;28;20055;-78
2021/06/02 05:34:33;;;;;;;6.25;4.15;;;22.50;50.50;;;;;;5053918;28;20029;-77
2021/06/02 05:38:03;;;;;;;8.02;3.88;;;22.60;50.10;;;;;;5053828;28;20032;-78
2021/06/02 05:40:47;;;;;;;7.18;4.05;;;23.00;49.50;;;;;;4970435;28;20043;-79
2021/06/02 05:43:31;;;;;;;7.65;3.70;;;23.10;49.20;;;;;;4964485;28;20089;-77
2021/06/02 05:46:29;;;;;;;9.65;3.90;;;23.40;48.10;;;;;;5035482;28;20041;-76
2021/06/02 05:49:28;;;;;;;9.48;3.80;;;23.60;47.70;;;;;;5069158;28;20032;-77
2021/06/02 05:52:31;;;;;;;10.93;4.18;;;23.80;46.50;;;;;;5073707;28;20025;-77
2021/06/02 05:55:26;;;;;;;13.35;8.52;;;24.00;46.20;;;;;;5054692;28;20025;-78
2021/06/02 05:58:30;;;;;;;8.73;4.45;;;24.00;46.40;;;;;;5039394;28;20047;-76
2021/06/02 06:01:14;;;;;;;8.30;4.25;;;24.40;45.70;;;;;;5070711;28;20150;-78
2021/06/02 06:03:56;;;;;;;5.82;3.70;;;24.70;47.00;;;;;;5050782;28;20036;-77
2021/06/02 06:06:27;;;;;;;8.02;4.25;;;24.70;47.20;;;;;;5067397;28;20040;-79
2021/06/02 06:09:28;;;;;;;9.75;4.25;;;24.50;45.60;;;;;;5058789;28;20381;-79
2021/06/02 06:12:28;;;;;;;10.07;4.45;;;24.30;45.80;;;;;;5035383;28;20059;-77
2021/06/02 06:15:12;;;;;;;8.18;4.40;;;24.40;45.90;;;;;;5068989;28;20085;-76
2021/06/02 06:18:02;;;;;;;8.93;4.00;;;24.80;45.50;;;;;;5072958;28;20483;-78
2021/06/02 06:21:06;;;;;;;13.23;4.50;;;25.10;45.10;;;;;;5054316;28;20048;-78
2021/06/02 06:23:55;;;;;;;10.90;4.65;;;25.30;44.40;;;;;;5052431;28;20056;-79
2021/06/02 06:26:33;;;;;;;9.60;4.47;;;25.30;45.60;;;;;;5048423;28;20362;-80
2021/06/02 06:29:31;;;;;;;8.65;4.50;;;25.30;44.00;;;;;;5053056;28;20201;-77
2021/06/02 06:32:00;;;;;;;7.03;4.28;;;25.20;44.10;;;;;;5052748;28;20415;-76
2021/06/02 06:34:30;;;;;;;9.48;4.10;;;25.20;46.10;;;;;;5060452;28;20035;-79
2021/06/02 06:36:59;;;;;;;9.32;4.20;;;25.20;46.10;;;;;;5072721;28;20025;-74
2021/06/02 06:39:51;;;;;;;9.40;4.55;;;25.50;46.00;;;;;;5072669;28;20424;-79
2021/06/02 06:42:23;;;;;;;10.57;4.00;;;25.70;43.90;;;;;;5045747;28;20453;-73
2021/06/02 06:45:04;;;;;;;11.17;4.47;;;25.80;44.20;;;;;;5052004;28;20448;-75
2021/06/02 06:47:34;;;;;;;10.23;4.20;;;25.80;45.60;;;;;;5052542;28;20100;-72
2021/06/02 06:50:00;;;;;;;8.43;4.13;;;25.70;45.40;;;;;;5052510;28;20112;-76
2021/06/02 06:52:28;;;;;;;13.07;4.80;;;25.80;45.50;;;;;;5052585;28;20032;-74
2021/06/02 06:54:57;;;;;;;10.80;4.80;;;25.90;44.90;;;;;;5059806;28;20104;-77
2021/06/02 06:57:24;;;;;;;9.13;4.95;;;26.00;44.50;;;;;;5058367;28;20113;-80
2021/06/02 06:59:50;;;;;;;11.27;4.43;;;26.10;44.80;;;;;;5076527;28;20146;-74
2021/06/02 07:02:18;;;;;;;7.03;3.90;;;26.20;44.20;;;;;;5076482;28;20036;-80
2021/06/02 07:04:45;;;;;;;14.05;4.32;;;26.30;44.50;;;;;;5073663;28;20039;-74
2021/06/02 07:07:13;;;;;;;9.85;3.83;;;26.20;44.10;;;;;;5056111;28;20044;-75
2021/06/02 07:09:39;;;;;;;7.03;3.65;;;26.30;42.10;;;;;;5038614;28;20025;-75
2021/06/02 07:12:06;;;;;;;9.00;3.90;;;26.40;42.70;;;;;;5056238;28;20021;-74
2021/06/02 07:14:34;;;;;;;7.07;3.88;;;26.30;42.40;;;;;;5075358;28;20377;-74
2021/06/02 07:17:07;;;;;;;12.00;3.97;;;26.20;43.00;;;;;;5056327;28;20025;-76
2021/06/02 07:19:37;;;;;;;12.02;3.72;;;26.30;42.00;;;;;;5063417;28;20048;-77
2021/06/02 07:22:03;;;;;;;7.38;3.97;;;26.40;42.90;;;;;;5056606;28;20097;-74
2021/06/02 07:24:30;;;;;;;6.47;3.72;;;26.50;42.50;;;;;;5044387;28;20041;-74
2021/06/02 07:26:57;;;;;;;9.88;4.20;;;26.50;42.60;;;;;;5058370;28;20021;-74
2021/06/02 07:29:27;;;;;;;6.53;3.65;;;26.50;42.20;;;;;;5055883;28;20025;-75
2021/06/02 07:31:53;;;;;;;7.72;3.95;;;26.50;42.40;;;;;;5055697;28;20025;-75
2021/06/02 07:34:22;;;;;;;7.95;4.30;;;26.60;43.00;;;;;;5037846;28;20365;-82
2021/06/02 07:36:50;;;;;;;12.68;4.88;;;26.60;42.40;;;;;;5055996;28;20071;-73
2021/06/02 07:39:15;;;;;;;11.55;4.38;;;26.60;42.60;;;;;;5049145;28;20020;-73
2021/06/02 07:41:41;;;;;;;12.77;5.00;;;26.50;42.40;;;;;;5068081;28;20070;-70
2021/06/02 07:44:07;;;;;;;14.55;4.82;;;26.60;42.70;;;;;;5061785;28;20071;-72
2021/06/02 07:46:36;;;;;;;13.82;4.90;;;26.60;42.80;;;;;;5067487;28;20400;-73
2021/06/02 07:49:03;;;;;;;9.23;4.57;;;26.60;43.00;;;;;;5056187;28;20017;-69
2021/06/02 07:51:32;;;;;;;13.70;5.22;;;26.50;43.10;;;;;;5047663;28;20032;-74
2021/06/02 07:53:58;;;;;;;8.18;4.10;;;26.50;43.00;;;;;;5047670;28;20032;-74
2021/06/02 07:56:23;;;;;;;8.60;4.70;;;26.60;42.90;;;;;;5050427;28;20104;-73
2021/06/02 07:58:49;;;;;;;14.30;4.43;;;26.50;42.70;;;;;;5037149;28;20032;-73
2021/06/02 08:01:15;;;;;;;11.52;4.18;;;26.50;43.20;;;;;;5037259;28;20025;-73
2021/06/02 08:03:40;;;;;;;7.35;4.28;;;26.40;43.00;;;;;;5054936;28;20017;-73
2021/06/02 08:06:06;;;;;;;8.23;4.22;;;26.30;43.00;;;;;;5036146;28;20116;-74
2021/06/02 08:08:32;;;;;;;9.27;4.07;;;26.40;42.90;;;;;;5054974;28;20492;-73
2021/06/02 08:10:58;;;;;;;8.90;3.90;;;26.50;42.80;;;;;;5055421;28;20036;-74
2021/06/02 08:13:23;;;;;;;8.60;3.58;;;26.80;43.40;;;;;;5055184;28;20021;-73
2021/06/02 08:15:49;;;;;;;8.40;3.90;;;26.80;42.60;;;;;;5020695;28;20044;-74
2021/06/02 08:18:15;;;;;;;10.48;4.80;;;26.80;42.40;;;;;;5068068;28;20021;-75
2021/06/02 08:20:42;;;;;;;8.57;3.85;;;26.60;42.60;;;;;;5046373;28;20142;-71
2021/06/02 08:23:08;;;;;;;8.68;3.97;;;26.70;42.70;;;;;;5063475;28;20483;-71
2021/06/02 08:25:34;;;;;;;11.25;4.10;;;26.80;42.70;;;;;;5047058;28;20116;-72
2021/06/02 08:27:59;;;;;;;8.45;3.60;;;26.70;42.50;;;;;;5075551;28;20067;-69
2021/06/02 08:30:25;;;;;;;7.93;3.90;;;26.90;42.40;;;;;;5067860;28;20510;-72
2021/06/02 08:32:51;;;;;;;7.40;3.95;;;27.00;42.20;;;;;;5074932;28;20052;-75
2021/06/02 08:35:18;;;;;;;8.27;3.88;;;27.00;42.00;;;;;;5074588;28;20078;-72
2021/06/02 08:37:45;;;;;;;8.32;3.65;;;26.80;42.30;;;;;;5071398;28;20053;-72
2021/06/02 08:40:12;;;;;;;10.18;3.72;;;26.90;42.50;;;;;;5062631;28;20071;-72
2021/06/02 08:42:43;;;;;;;10.15;4.05;;;27.00;42.50;;;;;;5054536;28;20078;-72
2021/06/02 08:45:10;;;;;;;10.15;3.60;;;27.10;42.40;;;;;;5036654;28;20032;-68
2021/06/02 08:47:36;;;;;;;7.45;3.65;;;26.90;41.90;;;;;;5061795;28;20032;-70
2021/06/02 08:50:04;;;;;;;15.02;4.13;;;26.70;42.70;;;;;;5068760;28;20032;-71
2021/06/02 08:52:37;;;;;;;5.55;3.20;;;26.80;43.10;;;;;;5054559;28;20480;-71
2021/06/02 08:55:08;;;;;;;7.35;3.53;;;26.80;41.90;;;;;;5020834;28;20090;-70
2021/06/02 08:57:38;;;;;;;9.90;3.70;;;27.10;41.90;;;;;;5039727;28;20047;-72
2021/06/02 09:00:07;;;;;;;8.13;3.60;;;27.20;42.80;;;;;;5056689;28;20048;-77
2021/06/02 09:02:33;;;;;;;12.23;3.60;;;27.20;42.10;;;;;;5054156;28;20037;-75
2021/06/02 09:04:58;;;;;;;8.15;3.30;;;27.30;42.10;;;;;;5053985;28;20488;-73
2021/06/02 09:07:26;;;;;;;12.32;3.20;;;27.20;42.10;;;;;;5054222;28;20036;-75
2021/06/02 09:09:52;;;;;;;7.82;3.20;;;27.20;42.30;;;;;;5054374;28;20017;-74
2021/06/02 09:12:32;;;;;;;8.98;3.28;;;27.20;42.00;;;;;;5071941;28;20108;-73
2021/06/02 09:15:10;;;;;;;5.78;3.10;;;27.10;41.80;;;;;;5055390;28;20075;-74
2021/06/02 09:17:53;;;;;;;6.13;2.92;;;27.30;41.30;;;;;;5053731;28;20033;-74
2021/06/02 09:20:46;;;;;;;6.55;2.97;;;27.50;40.50;;;;;;5053736;28;20053;-74
2021/06/02 09:23:32;;;;;;;6.97;3.50;;;27.70;39.70;;;;;;5054453;28;20021;-74
2021/06/02 09:26:11;;;;;;;9.82;3.33;;;27.60;40.60;;;;;;5054557;28;20040;-74
2021/06/02 09:28:54;;;;;;;11.55;2.95;;;27.70;39.60;;;;;;5057652;28;20104;-74
2021/06/02 09:31:30;;;;;;;9.48;3.17;;;27.70;40.70;;;;;;5043308;28;20028;-76
2021/06/02 09:34:00;;;;;;;8.48;3.40;;;27.90;39.70;;;;;;5074220;28;20021;-74
2021/06/02 09:36:32;;;;;;;10.90;4.30;;;28.00;39.60;;;;;;5073395;28;20033;-75
2021/06/02 09:39:00;;;;;;;5.60;3.33;;;28.20;40.20;;;;;;5073393;28;20021;-75
2021/06/02 09:41:28;;;;;;;8.35;3.55;;;28.30;40.30;;;;;;5070398;28;20095;-75
2021/06/02 09:43:54;;;;;;;10.48;3.10;;;28.40;40.40;;;;;;5052902;28;20025;-74
2021/06/02 09:46:21;;;;;;;6.63;3.38;;;28.50;40.20;;;;;;5052658;28;20043;-74
2021/06/02 09:48:46;;;;;;;8.20;3.25;;;28.50;40.00;;;;;;5052995;28;20104;-75
2021/06/02 09:51:35;;;;;;;7.30;3.30;;;28.50;40.20;;;;;;5034597;28;20542;-76
2021/06/02 09:54:06;;;;;;;5.90;2.92;;;28.40;39.10;;;;;;5059547;28;20070;-75
2021/06/02 09:56:44;;;;;;;8.45;3.10;;;28.50;39.20;;;;;;5073195;28;20042;-74
2021/06/02 09:59:12;;;;;;;10.00;3.20;;;28.50;38.80;;;;;;5073340;28;20511;-74
2021/06/02 10:01:59;;;;;;;11.27;3.10;;;28.60;39.10;;;;;;5072409;28;20059;-75
2021/06/02 10:04:43;;;;;;;6.25;3.05;;;28.60;38.40;;;;;;5053111;28;20021;-74
2021/06/02 10:07:21;;;;;;;6.53;3.10;;;28.40;39.10;;;;;;5035049;28;20056;-75
2021/06/02 10:09:48;;;;;;;9.48;2.80;;;28.40;37.80;;;;;;5053290;28;20017;-74
2021/06/02 10:12:14;;;;;;;8.40;3.28;;;28.30;38.70;;;;;;5055631;28;20040;-75
2021/06/02 10:14:52;;;;;;;7.88;3.10;;;28.30;38.90;;;;;;5072617;28;20036;-74
2021/06/02 10:17:32;;;;;;;8.02;3.30;;;28.20;39.10;;;;;;5054558;28;20032;-75
2021/06/02 10:20:11;;;;;;;8.15;3.53;;;28.30;38.90;;;;;;5070072;28;20086;-74
2021/06/02 10:22:39;;;;;;;5.32;3.40;;;28.30;39.80;;;;;;5058095;28;20075;-74
2021/06/02 10:25:07;;;;;;;8.75;3.22;;;28.20;41.60;;;;;;5073456;28;20123;-75
2021/06/02 10:27:34;;;;;;;7.88;3.28;;;28.10;42.00;;;;;;5073227;28;20029;-74
2021/06/02 10:29:59;;;;;;;7.43;3.50;;;27.90;42.40;;;;;;5058568;28;20044;-75
2021/06/02 10:32:26;;;;;;;7.72;3.00;;;27.90;42.50;;;;;;5096595;28;20024;-76
2021/06/02 10:34:53;;;;;;;6.07;2.85;;;27.90;42.60;;;;;;5088047;28;20086;-76
2021/06/02 10:37:22;;;;;;;4.97;3.10;;;27.80;42.80;;;;;;5073318;28;20029;-77
2021/06/02 10:40:00;;;;;;;5.47;2.83;;;27.90;42.70;;;;;;5055580;28;20492;-75
2021/06/02 10:42:46;;;;;;;6.25;2.47;;;27.90;42.30;;;;;;5073013;28;20024;-74
2021/06/02 10:45:34;;;;;;;6.68;2.92;;;27.80;41.10;;;;;;5052395;28;20036;-75
2021/06/02 10:48:02;;;;;;;8.68;3.28;;;27.80;42.00;;;;;;5052619;28;20386;-75
2021/06/02 10:50:35;;;;;;;7.13;3.85;;;27.80;42.30;;;;;;5052808;28;20032;-74
2021/06/02 10:53:21;;;;;;;7.97;3.28;;;27.80;42.30;;;;;;5072327;28;20086;-76
2021/06/02 10:55:49;;;;;;;6.82;2.78;;;27.90;41.20;;;;;;5034452;28;20056;-76
2021/06/02 10:58:30;;;;;;;4.93;2.83;;;27.80;42.40;;;;;;5052541;28;20021;-74
2021/06/02 11:01:20;;;;;;;4.20;2.47;;;27.80;40.80;;;;;;5052610;28;20470;-73
2021/06/02 11:04:10;;;;;;;7.60;3.30;;;27.70;42.00;;;;;;5043730;28;20061;-80
2021/06/02 11:06:39;;;;;;;6.55;2.95;;;27.80;42.10;;;;;;5057422;28;20068;-71
2021/06/02 11:09:05;;;;;;;8.55;3.00;;;28.20;42.10;;;;;;5049841;28;20496;-74
2021/06/02 11:11:31;;;;;;;5.13;2.83;;;28.40;41.80;;;;;;5064814;28;20554;-74
2021/06/02 11:14:15;;;;;;;6.78;3.20;;;28.50;42.00;;;;;;5070351;28;20028;-73
2021/06/02 11:16:46;;;;;;;9.82;2.95;;;28.60;41.50;;;;;;5052475;28;20094;-75
2021/06/02 11:19:17;;;;;;;7.95;2.67;;;28.50;40.60;;;;;;5052367;28;20109;-70
2021/06/02 11:22:07;;;;;;;6.90;3.22;;;28.50;40.60;;;;;;5052482;28;20075;-72
2021/06/02 11:24:40;;;;;;;5.95;2.97;;;28.60;40.20;;;;;;5044495;28;20044;-71
2021/06/02 11:27:12;;;;;;;;;;;28.50;40.20;;;;;;5063188;28;20041;-77
2021/06/02 11:29:50;;;;;;;7.18;2.72;;;28.50;39.30;;;;;;5063740;28;20268;-71
2021/06/02 11:32:28;;;;;;;6.63;2.75;;;28.60;40.50;;;;;;5072579;28;20052;-73
2021/06/02 11:35:03;;;;;;;8.15;2.55;;;28.60;40.60;;;;;;5067663;28;20064;-74
2021/06/02 11:37:32;;;;;;;7.35;2.97;;;28.70;39.90;;;;;;5052198;28;20104;-70
2021/06/02 11:40:00;;;;;;;7.03;3.13;;;28.80;39.50;;;;;;5051685;28;20025;-69
2021/06/02 11:42:52;;;;;;;12.10;2.90;;;28.90;39.60;;;;;;5055687;28;20021;-70
2021/06/02 11:45:26;;;;;;;5.35;2.85;;;28.90;38.20;;;;;;5060410;28;20028;-70
2021/06/02 11:48:00;;;;;;;5.45;2.30;;;28.90;38.30;;;;;;5077439;28;20013;-70
2021/06/02 11:50:26;;;;;;;6.40;2.45;;;28.60;38.10;;;;;;5075329;28;20432;-70
2021/06/02 11:53:01;;;;;;;5.72;3.10;;;28.50;38.20;;;;;;5055651;28;20540;-68
2021/06/02 11:55:29;;;;;;;8.25;2.72;;;28.60;37.80;;;;;;5058665;28;20028;-70
2021/06/02 11:57:55;;;;;;;8.77;2.47;;;28.60;37.80;;;;;;5075376;28;20470;-66
2021/06/02 12:00:25;;;;;;;8.07;2.70;;;28.70;37.50;;;;;;5057619;28;20031;-70
2021/06/02 12:02:55;;;;;;;6.43;2.70;;;28.90;37.50;;;;;;5058392;28;20028;-71
2021/06/02 12:05:25;;;;;;;7.57;3.13;;;29.00;37.20;;;;;;5075399;28;20438;-71
2021/06/02 12:07:55;;;;;;;6.22;2.80;;;29.10;37.10;;;;;;5056426;28;20374;-68
2021/06/02 12:10:22;;;;;;;6.50;3.30;;;29.30;36.90;;;;;;5055872;28;20027;-69
2021/06/02 12:12:48;;;;;;;7.00;2.90;;;29.40;37.20;;;;;;5055359;28;20021;-69
2021/06/02 12:15:17;;;;;;;6.18;2.47;;;29.30;37.00;;;;;;5037356;28;20032;-69
2021/06/02 12:17:44;;;;;;;6.47;2.47;;;29.40;36.70;;;;;;5058675;28;20106;-68
2021/06/02 12:20:17;;;;;;;6.03;2.83;;;29.50;36.80;;;;;;5075192;28;20041;-69
2021/06/02 12:22:44;;;;;;;7.90;2.90;;;29.60;37.00;;;;;;5075253;28;20021;-71
2021/06/02 12:25:19;;;;;;;6.60;3.22;;;29.70;36.60;;;;;;5075251;28;20036;-70
2021/06/02 12:27:46;;;;;;;7.95;3.30;;;29.80;36.30;;;;;;5073513;28;20017;-68
2021/06/02 12:30:15;;;;;;;5.20;2.80;;;29.50;36.10;;;;;;5073269;28;20090;-69
2021/06/02 12:32:47;;;;;;;6.38;2.85;;;29.40;36.30;;;;;;5075106;28;20029;-70
2021/06/02 12:35:31;;;;;;;5.97;3.20;;;29.40;36.10;;;;;;5059183;28;20032;-69
2021/06/02 12:38:05;;;;;;;8.38;3.00;;;29.50;36.10;;;;;;5059137;28;20024;-69
2021/06/02 12:40:36;;;;;;;7.43;2.70;;;29.50;36.10;;;;;;5054190;28;20024;-69
2021/06/02 12:43:11;;;;;;;5.53;2.38;;;29.40;35.90;;;;;;5074243;28;20021;-69
2021/06/02 12:45:38;;;;;;;11.65;2.60;;;29.30;35.40;;;;;;5050345;28;20062;-79
2021/06/02 12:48:05;;;;;;;5.00;2.85;;;29.10;35.60;;;;;;5054071;28;20331;-75
2021/06/02 12:50:40;;;;;;;5.63;2.80;;;29.10;35.80;;;;;;5069176;28;20051;-74
2021/06/02 12:53:08;;;;;;;6.55;2.78;;;29.00;35.80;;;;;;5073426;28;20024;-72
2021/06/02 12:55:48;;;;;;;6.55;2.80;;;29.10;36.10;;;;;;5056207;28;20028;-70
2021/06/02 12:58:19;;;;;;;7.63;2.88;;;29.10;36.10;;;;;;5074199;28;20074;-70
2021/06/02 13:00:51;;;;;;;7.13;2.63;;;29.10;35.60;;;;;;5060024;28;20060;-71
2021/06/02 13:03:21;;;;;;;8.02;2.22;;;29.10;36.00;;;;;;5036251;28;20056;-69
2021/06/02 13:05:51;;;;;;;5.72;2.40;;;29.00;35.10;;;;;;5072053;28;20436;-70
2021/06/02 13:08:18;;;;;;;5.70;2.08;;;28.90;34.70;;;;;;5074106;28;20066;-69
2021/06/02 13:10:46;;;;;;;5.93;2.10;;;28.80;34.60;;;;;;5062542;28;20029;-68
2021/06/02 13:13:13;;;;;;;4.18;2.20;;;28.70;34.60;;;;;;5054109;28;20029;-70
2021/06/02 13:15:42;;;;;;;6.32;2.35;;;28.60;34.40;;;;;;5054117;28;20491;-69
2021/06/02 13:18:20;;;;;;;4.03;2.13;;;28.70;35.30;;;;;;5059975;28;20047;-72
2021/06/02 13:20:46;;;;;;;7.93;2.30;;;28.60;34.60;;;;;;5083724;28;20549;-68
2021/06/02 13:23:22;;;;;;;5.40;2.30;;;28.40;35.30;;;;;;5082363;28;20020;-70
2021/06/02 13:26:03;;;;;;;5.63;2.17;;;28.30;36.70;;;;;;5074062;28;20110;-70
2021/06/02 13:28:31;;;;;;;8.82;2.65;;;28.30;34.60;;;;;;5073881;28;20029;-70
2021/06/02 13:31:02;;;;;;;10.90;2.65;;;28.40;34.90;;;;;;5064234;28;20037;-70